Fecha, hora, temperatura, viento dirección y velocidad, humedad y presión.

  • 19-03-2019 23:00:00 | 9.20°C | Sudeste |3.00 km/h | 96.00% | 1029.60 hPa
  • 19-03-2019 22:00:00 | 9.30°C | Sudeste |3.00 km/h | 96.00% | 1029.30 hPa
  • 19-03-2019 21:00:00 | 9.00°C | Este |2.00 km/h | 94.00% | 1029.00 hPa
  • 19-03-2019 20:00:00 | 9.80°C | Sudeste |2.00 km/h | 87.00% | 1028.60 hPa
  • 19-03-2019 19:00:00 | 11.20°C | Sudeste |3.00 km/h | 81.00% | 1028.30 hPa
  • 19-03-2019 18:00:00 | 11.10°C | Norte |11.00 km/h | 83.00% | 1027.90 hPa
  • 19-03-2019 17:00:00 | 12.70°C | Norte |6.00 km/h | 76.00% | 1027.70 hPa
  • 19-03-2019 16:00:00 | 12.60°C | Nordeste |4.00 km/h | 74.00% | 1027.70 hPa
  • 19-03-2019 15:00:00 | 12.70°C | Norte |9.00 km/h | 76.00% | 1027.70 hPa
  • 19-03-2019 14:00:00 | 12.20°C | Noroeste |7.00 km/h | 81.00% | 1028.10 hPa
  • 19-03-2019 13:00:00 | 11.50°C | Este |4.00 km/h | 86.00% | 1028.30 hPa
  • 19-03-2019 12:00:00 | 10.60°C | Oeste |6.00 km/h | 90.00% | 1028.10 hPa
  • 19-03-2019 11:00:00 | 10.30°C | Sudoeste |5.00 km/h | 91.00% | 1028.10 hPa
  • 19-03-2019 10:00:00 | 9.10°C | Sur |4.00 km/h | 97.00% | 1027.90 hPa
  • 19-03-2019 09:00:00 | 8.90°C | Calma |0.00 km/h | 94.00% | 1027.50 hPa
  • 19-03-2019 08:00:00 | 8.50°C | Sudoeste |2.00 km/h | 94.00% | 1026.90 hPa
  • 19-03-2019 07:00:00 | 8.50°C | Oeste |4.00 km/h | 93.00% | 1026.70 hPa
  • 19-03-2019 06:00:00 | 8.60°C | Calma |0.00 km/h | 92.00% | 1026.50 hPa
  • 19-03-2019 05:00:00 | 8.80°C | Sur |3.00 km/h | 89.00% | 1026.50 hPa
  • 19-03-2019 04:00:00 | 8.90°C | Oeste |2.00 km/h | 87.00% | 1026.40 hPa
  • 19-03-2019 03:00:00 | 8.80°C | Norte |3.00 km/h | 86.00% | 1027.00 hPa
  • 19-03-2019 02:00:00 | 8.70°C | Sudoeste |2.00 km/h | 88.00% | 1027.40 hPa
  • 19-03-2019 01:00:00 | 8.90°C | Calma |0.00 km/h | 88.00% | 1027.60 hPa
  • 19-03-2019 00:00:00 | 8.80°C | Sur |3.00 km/h | 88.00% | 1027.60 hPa
    • Información sobre el estado de las mareas, altura de la marejada, temperatura del agua y otros datos de Gijón en Asturias.

      Surf Gijón